Time;durP1;ratioP1;P1;durP2;ratioP2;P2;SDS_P1;SDS_P2;PMS_P1;PMS_P2;Temp;Humidity;BMP_temperature;BMP_pressure;BME280_temperature;BME280_humidity;BME280_pressure;Samples;Min_cycle;Max_cycle;Signal;HPM_P1;HPM_P2
2021/06/20 00:00:20;;;;;;;6.15;5.55;;;;;;;22.62;61.25;99521.41;5095803;28;20062;-51
2021/06/20 00:03:09;;;;;;;5.82;4.93;;;;;;;22.55;61.37;99513.00;5096648;28;20139;-51
2021/06/20 00:05:37;;;;;;;6.32;5.60;;;;;;;22.57;61.39;99516.41;5096325;28;20044;-51
2021/06/20 00:08:04;;;;;;;6.97;5.25;;;;;;;22.54;61.70;99510.47;5095229;28;20360;-51
2021/06/20 00:10:30;;;;;;;6.18;5.60;;;;;;;22.52;62.01;99513.28;5095388;28;20348;-51
2021/06/20 00:12:57;;;;;;;6.75;5.65;;;;;;;22.51;61.73;99519.56;5096575;28;20044;-51
2021/06/20 00:15:24;;;;;;;6.43;5.43;;;;;;;22.51;61.91;99513.38;5096298;28;20119;-51
2021/06/20 00:17:50;;;;;;;7.63;6.10;;;;;;;22.49;62.22;99512.66;5095390;28;20125;-51
2021/06/20 00:20:17;;;;;;;7.47;6.00;;;;;;;22.48;61.99;99502.94;5095942;28;20048;-51
2021/06/20 00:22:44;;;;;;;5.88;5.15;;;;;;;22.46;62.42;99516.44;5095270;28;20048;-51
2021/06/20 00:25:10;;;;;;;8.45;6.72;;;;;;;22.47;62.49;99517.28;5095074;28;20036;-51
2021/06/20 00:27:36;;;;;;;6.35;5.75;;;;;;;22.45;62.36;99511.19;5094882;28;20067;-51
2021/06/20 00:30:06;;;;;;;7.10;6.32;;;;;;;22.47;62.32;99511.94;5095006;28;20101;-51
2021/06/20 00:32:32;;;;;;;6.65;5.90;;;;;;;22.43;62.78;99503.34;5095544;28;20113;-51
2021/06/20 00:34:58;;;;;;;6.80;6.05;;;;;;;22.41;62.62;99497.25;5096310;28;20101;-51
2021/06/20 00:37:24;;;;;;;8.60;5.80;;;;;;;22.41;62.81;99499.91;5094954;28;20043;-51
2021/06/20 00:39:50;;;;;;;7.22;6.40;;;;;;;22.37;62.94;99496.66;5095784;28;20063;-51
2021/06/20 00:42:16;;;;;;;6.70;6.00;;;;;;;22.35;63.26;99495.91;5095982;28;20051;-51
2021/06/20 00:44:46;;;;;;;6.25;5.65;;;;;;;22.32;63.52;99490.81;5096031;28;20047;-51
2021/06/20 00:47:12;;;;;;;6.32;5.72;;;;;;;22.31;63.29;99485.63;5095980;28;20051;-50
2021/06/20 00:49:39;;;;;;;6.55;5.93;;;;;;;22.30;63.06;99487.44;5095982;28;20040;-51
2021/06/20 00:52:05;;;;;;;7.82;6.45;;;;;;;22.23;63.59;99480.03;5095934;28;20040;-51
2021/06/20 00:54:31;;;;;;;7.22;5.93;;;;;;;22.28;63.41;99488.53;5095680;28;20040;-51
2021/06/20 00:56:57;;;;;;;7.30;6.35;;;;;;;22.25;63.18;99473.59;5095732;28;20051;-51
2021/06/20 00:59:23;;;;;;;7.40;6.63;;;;;;;22.24;63.17;99476.41;5095067;28;20048;-52
2021/06/20 01:01:49;;;;;;;7.43;6.35;;;;;;;22.21;63.12;99474.81;5094849;28;20062;-51
2021/06/20 01:04:15;;;;;;;6.88;6.05;;;;;;;22.20;63.32;99477.59;5094947;28;20048;-51
2021/06/20 01:06:42;;;;;;;7.47;6.55;;;;;;;22.17;63.34;99478.72;5095784;28;20127;-51
2021/06/20 01:09:08;;;;;;;7.28;6.55;;;;;;;22.14;63.54;99478.91;5095154;28;20147;-51
2021/06/20 01:11:33;;;;;;;7.75;6.38;;;;;;;22.12;63.62;99478.16;5098866;28;20532;-51
2021/06/20 01:14:00;;;;;;;8.18;7.13;;;;;;;22.09;63.81;99475.75;5099373;28;20135;-51
2021/06/20 01:16:27;;;;;;;8.68;6.40;;;;;;;22.05;63.64;99472.47;5081612;28;20048;-52
2021/06/20 01:18:54;;;;;;;8.35;7.15;;;;;;;22.00;63.78;99468.44;5098275;28;20044;-51
2021/06/20 01:21:20;;;;;;;7.65;6.25;;;;;;;21.94;64.08;99462.66;5081606;28;20063;-51
2021/06/20 01:23:46;;;;;;;12.23;6.82;;;;;;;21.90;64.48;99466.53;5098931;28;20416;-51
2021/06/20 01:26:12;;;;;;;10.63;6.13;;;;;;;21.88;64.49;99470.28;5098982;28;20125;-51
2021/06/20 01:28:51;;;;;;;8.13;6.60;;;;;;;21.85;64.59;99471.34;5099208;28;20112;-51
2021/06/20 01:31:18;;;;;;;7.68;6.68;;;;;;;21.80;64.89;99478.84;5098858;28;20464;-51
2021/06/20 01:33:45;;;;;;;7.45;6.55;;;;;;;21.79;64.87;99469.16;5099114;28;20068;-51
2021/06/20 01:36:11;;;;;;;10.75;6.97;;;;;;;21.77;64.71;99459.56;5099010;28;20048;-51
2021/06/20 01:38:37;;;;;;;7.18;6.45;;;;;;;21.71;64.99;99460.91;5098961;28;20071;-51
2021/06/20 01:41:04;;;;;;;6.95;6.00;;;;;;;21.68;64.96;99453.16;5098242;28;20100;-51
2021/06/20 01:43:30;;;;;;;8.73;6.90;;;;;;;21.65;65.13;99446.22;5097704;28;20036;-51
2021/06/20 01:45:56;;;;;;;9.52;7.90;;;;;;;21.61;65.59;99443.91;5098141;28;20055;-51
2021/06/20 01:48:22;;;;;;;8.70;7.40;;;;;;;21.58;65.59;99441.47;5097623;28;20436;-50
2021/06/20 01:50:48;;;;;;;8.70;7.35;;;;;;;21.55;65.62;99447.91;5097851;28;20036;-51
2021/06/20 01:53:15;;;;;;;8.80;7.07;;;;;;;21.53;65.68;99443.66;5099232;28;20384;-51
2021/06/20 01:55:42;;;;;;;8.52;7.05;;;;;;;21.47;65.98;99437.81;5098703;28;20052;-51
2021/06/20 01:58:09;;;;;;;7.45;6.65;;;;;;;21.44;65.86;99439.88;5098349;28;20055;-50
2021/06/20 02:00:36;;;;;;;8.75;6.97;;;;;;;21.40;66.01;99433.91;5098238;28;20044;-51
2021/06/20 02:03:31;;;;;;;11.95;7.00;;;;;;;21.38;67.03;99446.50;5098446;28;20048;-51
2021/06/20 02:05:58;;;;;;;7.78;6.78;;;;;;;21.35;66.30;99456.53;5098058;28;20066;-51
2021/06/20 02:08:24;;;;;;;7.75;6.38;;;;;;;21.36;66.44;99455.59;5098424;28;20044;-51
2021/06/20 02:10:51;;;;;;;9.73;7.75;;;;;;;21.34;66.74;99454.81;5098349;28;20127;-51
2021/06/20 02:13:17;;;;;;;8.50;6.90;;;;;;;21.33;66.57;99458.44;5098347;28;20056;-51
2021/06/20 02:15:43;;;;;;;9.00;7.65;;;;;;;21.30;66.63;99456.88;5098245;28;20051;-51
2021/06/20 02:18:10;;;;;;;8.05;6.50;;;;;;;21.27;66.70;99457.09;5097924;28;20059;-51
2021/06/20 02:20:38;;;;;;;14.25;7.90;;;;;;;21.21;67.33;99457.53;5097787;28;20109;-51
2021/06/20 02:23:04;;;;;;;11.38;7.68;;;;;;;21.14;67.44;99445.66;5097147;28;20051;-51
2021/06/20 02:25:30;;;;;;;10.77;7.05;;;;;;;21.11;67.56;99443.22;5098605;28;20044;-51
2021/06/20 02:27:55;;;;;;;8.45;7.50;;;;;;;21.06;68.05;99442.69;5097637;28;20054;-50
2021/06/20 02:30:22;;;;;;;8.85;7.38;;;;;;;21.05;68.33;99438.34;5097963;28;20429;-51
2021/06/20 02:32:47;;;;;;;8.55;7.13;;;;;;;21.05;68.28;99438.34;5097615;28;20048;-51
2021/06/20 02:35:14;;;;;;;8.68;6.63;;;;;;;21.05;68.18;99433.03;5097966;28;20055;-51
2021/06/20 02:37:40;;;;;;;8.00;6.72;;;;;;;21.05;68.16;99438.34;5097531;28;20113;-51
2021/06/20 02:40:07;;;;;;;8.45;7.15;;;;;;;21.06;68.34;99443.56;5097786;28;20072;-51
2021/06/20 02:42:33;;;;;;;7.70;6.90;;;;;;;21.07;68.16;99444.41;5097683;28;20040;-51
2021/06/20 02:44:59;;;;;;;8.38;6.90;;;;;;;21.09;67.94;99437.16;5097384;28;20078;-51
2021/06/20 02:47:24;;;;;;;9.82;7.60;;;;;;;21.11;67.92;99437.91;5096544;28;20044;-51
2021/06/20 02:49:50;;;;;;;7.78;6.70;;;;;;;21.13;67.91;99431.50;5097622;28;20094;-51
2021/06/20 02:52:17;;;;;;;10.27;6.63;;;;;;;21.15;67.57;99439.34;5097589;28;20392;-51
2021/06/20 02:54:52;;;;;;;8.23;7.28;;;;;;;21.16;67.47;99438.41;5097540;28;20052;-51
2021/06/20 02:57:27;;;;;;;10.13;6.90;;;;;;;21.19;67.36;99435.53;5098031;28;20056;-51
2021/06/20 02:59:53;;;;;;;7.65;6.95;;;;;;;21.15;67.62;99426.03;5097516;28;20077;-51
2021/06/20 03:02:19;;;;;;;8.65;6.50;;;;;;;21.15;67.32;99423.38;5097277;28;20054;-51
2021/06/20 03:04:45;;;;;;;9.80;7.68;;;;;;;21.14;67.50;99430.53;5097818;28;20052;-51
2021/06/20 03:07:11;;;;;;;10.52;6.70;;;;;;;21.14;67.46;99419.88;5096971;28;20062;-51
2021/06/20 03:09:37;;;;;;;7.68;6.95;;;;;;;21.15;67.48;99418.06;5097224;28;20062;-51
2021/06/20 03:12:04;;;;;;;11.55;7.20;;;;;;;21.14;67.47;99419.03;5097202;28;20056;-51
2021/06/20 03:14:30;;;;;;;8.95;6.28;;;;;;;21.13;67.44;99415.53;5097165;28;20044;-51
2021/06/20 03:16:56;;;;;;;10.77;6.95;;;;;;;21.11;67.58;99412.13;5096003;28;20073;-51
2021/06/20 03:19:22;;;;;;;10.40;7.07;;;;;;;21.11;67.77;99408.59;5097344;28;20036;-51
2021/06/20 03:21:47;;;;;;;7.93;6.68;;;;;;;21.08;67.84;99403.50;5096633;28;20056;-51
2021/06/20 03:24:14;;;;;;;9.50;7.47;;;;;;;21.07;68.15;99408.00;5097000;28;20123;-51
2021/06/20 03:26:40;;;;;;;8.45;6.88;;;;;;;21.06;68.19;99413.41;5096440;28;20440;-51
2021/06/20 03:29:05;;;;;;;10.57;7.28;;;;;;;21.06;68.28;99410.75;5096602;28;20085;-51
2021/06/20 03:31:31;;;;;;;7.95;6.25;;;;;;;21.06;68.28;99411.63;5096864;28;20117;-51
2021/06/20 03:34:00;;;;;;;8.65;6.18;;;;;;;21.09;68.18;99415.84;5096586;28;20447;-51
2021/06/20 03:36:27;;;;;;;9.55;7.60;;;;;;;21.12;68.22;99421.78;5096775;28;20060;-51
2021/06/20 03:38:53;;;;;;;10.98;8.07;;;;;;;21.15;68.39;99424.22;5096717;28;20040;-51
2021/06/20 03:41:19;;;;;;;13.07;8.07;;;;;;;21.16;68.63;99430.44;5095831;28;20108;-51
2021/06/20 03:43:45;;;;;;;9.18;8.10;;;;;;;21.18;68.58;99431.13;5096365;28;20055;-51
2021/06/20 03:46:11;;;;;;;10.38;7.88;;;;;;;21.18;68.63;99428.47;5096555;28;20059;-51
2021/06/20 03:48:37;;;;;;;9.60;7.65;;;;;;;21.20;68.69;99422.09;5096214;28;20052;-51
2021/06/20 03:51:03;;;;;;;8.55;7.53;;;;;;;21.21;68.93;99414.94;5096898;28;20040;-51
2021/06/20 03:53:29;;;;;;;10.57;8.10;;;;;;;21.28;68.98;99418.81;5095655;28;20113;-51
2021/06/20 03:55:56;;;;;;;9.93;7.78;;;;;;;21.32;69.09;99425.66;5096232;28;20040;-51
2021/06/20 03:58:22;;;;;;;11.32;8.18;;;;;;;21.47;68.92;99418.31;5096151;28;20403;-51
2021/06/20 04:00:48;;;;;;;14.65;7.53;;;;;;;21.69;68.72;99423.69;5096749;28;20036;-51
2021/06/20 04:03:13;;;;;;;10.50;7.95;;;;;;;21.98;68.05;99417.09;5096027;28;20047;-51
2021/06/20 04:05:39;;;;;;;8.52;7.65;;;;;;;22.31;67.70;99411.78;5096358;28;20429;-51
2021/06/20 04:08:05;;;;;;;9.98;7.78;;;;;;;22.83;66.62;99417.38;5096055;28;20448;-51
2021/06/20 04:10:31;;;;;;;11.93;7.38;;;;;;;23.38;65.37;99420.00;5096566;28;20424;-51
2021/06/20 04:12:58;;;;;;;6.93;6.32;;;;;;;23.96;64.24;99426.59;5095976;28;20059;-51
2021/06/20 04:15:24;;;;;;;9.02;6.20;;;;;;;24.55;63.43;99419.66;5095316;28;20048;-51
2021/06/20 04:17:50;;;;;;;11.88;6.43;;;;;;;25.11;61.77;99410.16;5095975;28;20135;-52
2021/06/20 04:20:16;;;;;;;9.02;5.53;;;;;;;25.57;59.52;99416.63;5096496;28;20047;-52
2021/06/20 04:22:42;;;;;;;9.75;6.47;;;;;;;26.01;58.94;99423.19;5095502;28;20051;-51
2021/06/20 04:25:08;;;;;;;7.10;5.82;;;;;;;26.35;56.84;99428.00;5096183;28;20051;-51
2021/06/20 04:27:34;;;;;;;6.20;5.60;;;;;;;26.80;55.96;99433.41;5095958;28;20048;-52
2021/06/20 04:30:00;;;;;;;6.88;5.25;;;;;;;27.22;54.60;99432.03;5096158;28;20052;-52
2021/06/20 04:32:26;;;;;;;6.65;5.00;;;;;;;27.49;53.67;99431.94;5095891;28;20494;-52
2021/06/20 04:34:52;;;;;;;6.82;6.13;;;;;;;27.58;52.57;99438.22;5095787;28;20063;-52
2021/06/20 04:37:17;;;;;;;8.70;6.03;;;;;;;27.86;51.92;99440.81;5096125;28;20086;-52
2021/06/20 04:39:43;;;;;;;7.65;5.38;;;;;;;27.93;50.68;99439.16;5096064;28;20052;-52
2021/06/20 04:42:10;;;;;;;14.05;6.80;;;;;;;27.82;50.54;99442.97;5095984;28;20475;-52
2021/06/20 04:44:43;;;;;;;8.20;5.45;;;;;;;27.70;50.56;99450.41;5096421;28;20048;-52
2021/06/20 04:47:12;;;;;;;;;;;;;;;27.54;51.44;99446.75;5100263;28;20382;-52
2021/06/20 04:49:38;;;;;;;8.90;5.65;;;;;;;28.05;51.11;99437.91;5098765;28;20331;-51
2021/06/20 04:52:05;;;;;;;6.10;5.38;;;;;;;28.54;49.61;99450.78;5099915;28;20044;-52
2021/06/20 04:54:33;;;;;;;9.38;5.13;;;;;;;28.93;49.41;99461.03;5099607;28;20036;-52
2021/06/20 04:56:59;;;;;;;6.70;5.18;;;;;;;29.24;47.95;99459.41;5099784;28;20325;-52
2021/06/20 04:59:24;;;;;;;8.32;5.68;;;;;;;29.52;47.34;99457.25;5098890;28;20051;-52
2021/06/20 05:01:50;;;;;;;4.85;4.00;;;;;;;29.73;46.28;99462.13;5099425;28;20109;-51
2021/06/20 05:04:16;;;;;;;5.35;3.85;;;;;;;29.79;45.71;99466.03;5099881;28;20044;-52
2021/06/20 05:06:42;;;;;;;5.35;4.55;;;;;;;29.88;44.72;99469.56;5099624;28;20059;-52
2021/06/20 05:09:07;;;;;;;4.78;3.97;;;;;;;30.19;45.68;99472.38;5099257;28;20059;-52
2021/06/20 05:11:33;;;;;;;4.43;3.70;;;;;;;30.33;44.19;99468.16;5099553;28;20131;-52
2021/06/20 05:13:59;;;;;;;4.28;3.63;;;;;;;30.42;44.15;99470.66;5099490;28;20428;-52
2021/06/20 05:16:25;;;;;;;7.53;4.53;;;;;;;30.33;43.50;99468.16;5099158;28;20050;-52
2021/06/20 05:18:51;;;;;;;5.70;4.20;;;;;;;30.51;43.15;99464.16;5099348;28;20048;-52
2021/06/20 05:21:16;;;;;;;5.45;4.15;;;;;;;30.41;42.56;99462.69;5099317;28;20139;-52
2021/06/20 05:23:42;;;;;;;9.98;4.20;;;;;;;30.63;42.94;99464.63;5099213;28;20383;-52
2021/06/20 05:26:08;;;;;;;5.57;3.95;;;;;;;30.84;42.33;99469.47;5098848;28;20509;-52
2021/06/20 05:28:34;;;;;;;5.05;4.07;;;;;;;30.91;41.37;99469.63;5099197;28;20105;-52
2021/06/20 05:30:59;;;;;;;5.93;3.90;;;;;;;30.74;41.09;99474.22;5098859;28;20048;-52
2021/06/20 05:33:25;;;;;;;4.40;3.60;;;;;;;30.95;40.91;99481.75;5098860;28;20044;-52
2021/06/20 05:35:51;;;;;;;7.88;3.75;;;;;;;30.89;40.66;99483.28;5098772;28;20048;-52
2021/06/20 05:38:17;;;;;;;4.78;3.42;;;;;;;31.19;41.06;99489.69;5098219;28;20075;-52
2021/06/20 05:40:43;;;;;;;6.22;3.90;;;;;;;31.19;39.97;99488.84;5099256;28;20040;-52
2021/06/20 05:43:09;;;;;;;4.90;3.10;;;;;;;31.15;39.07;99485.66;5098807;28;20048;-52
2021/06/20 05:45:36;;;;;;;5.93;2.95;;;;;;;30.84;39.17;99477.59;5097772;28;20040;-52
2021/06/20 05:48:02;;;;;;;6.00;3.22;;;;;;;30.83;39.28;99480.47;5098893;28;20048;-52
2021/06/20 05:50:27;;;;;;;6.53;3.10;;;;;;;30.78;39.85;99488.25;5098787;28;20153;-52
2021/06/20 05:52:53;;;;;;;3.45;2.63;;;;;;;30.91;39.54;99486.66;5098512;28;20109;-52
2021/06/20 05:55:19;;;;;;;3.45;2.60;;;;;;;31.24;38.77;99472.94;5098617;28;20379;-52
2021/06/20 05:57:45;;;;;;;4.22;2.70;;;;;;;31.18;38.33;99473.66;5098266;28;20051;-52
2021/06/20 06:00:12;;;;;;;3.78;2.60;;;;;;;31.28;38.74;99470.72;5097406;28;20135;-52
2021/06/20 06:02:41;;;;;;;5.53;3.10;;;;;;;31.51;38.26;99471.59;5097635;28;20048;-52
2021/06/20 06:05:09;;;;;;;3.60;2.75;;;;;;;31.59;37.81;99478.78;5098527;28;20048;-52
2021/06/20 06:07:35;;;;;;;3.40;2.50;;;;;;;31.62;38.07;99482.00;5098436;28;20052;-52
2021/06/20 06:10:01;;;;;;;3.75;2.65;;;;;;;31.83;38.23;99485.88;5098437;28;20048;-52
2021/06/20 06:12:27;;;;;;;5.88;2.65;;;;;;;31.86;36.77;99483.63;5098128;28;20075;-52
2021/06/20 06:14:53;;;;;;;3.08;2.20;;;;;;;31.97;37.62;99495.06;5098087;28;20044;-52
2021/06/20 06:17:21;;;;;;;7.95;2.83;;;;;;;31.98;36.68;99494.91;5097972;28;20059;-52
2021/06/20 06:19:48;;;;;;;4.57;2.10;;;;;;;31.81;35.29;99488.75;5098239;28;20052;-52
2021/06/20 06:22:16;;;;;;;4.15;2.03;;;;;;;31.69;34.98;99487.50;5097788;28;20127;-52
2021/06/20 06:24:43;;;;;;;8.63;2.60;;;;;;;31.62;36.39;99475.72;5097869;28;20040;-52
2021/06/20 06:27:08;;;;;;;2.45;2.22;;;;;;;31.75;36.35;99484.09;5097885;28;20189;-52
2021/06/20 06:29:34;;;;;;;4.72;2.45;;;;;;;31.94;36.25;99477.31;5097490;28;20355;-52
2021/06/20 06:32:00;;;;;;;5.60;2.10;;;;;;;32.20;35.97;99478.75;5098000;28;20048;-52
2021/06/20 06:34:26;;;;;;;4.03;2.13;;;;;;;32.36;36.38;99475.84;5098232;28;20331;-52
2021/06/20 06:36:52;;;;;;;3.53;2.40;;;;;;;32.70;35.95;99480.72;5098184;28;20097;-52
2021/06/20 06:39:19;;;;;;;5.07;2.33;;;;;;;33.02;35.48;99476.78;5096686;28;20059;-52
2021/06/20 06:41:44;;;;;;;2.53;2.00;;;;;;;33.08;34.85;99477.00;5097803;28;20056;-52
2021/06/20 06:44:10;;;;;;;4.00;2.58;;;;;;;33.12;33.73;99467.47;5097463;28;20345;-52
2021/06/20 06:46:36;;;;;;;3.08;2.15;;;;;;;33.12;34.33;99478.31;5097950;28;20048;-52
2021/06/20 06:49:02;;;;;;;3.13;2.30;;;;;;;33.03;33.64;99464.03;5097396;28;20063;-52
2021/06/20 06:51:28;;;;;;;2.95;2.38;;;;;;;33.04;33.62;99477.41;5096732;28;20432;-52
2021/06/20 06:53:54;;;;;;;2.33;2.05;;;;;;;33.00;33.44;99476.09;5097491;28;20043;-52
2021/06/20 06:56:19;;;;;;;4.32;2.45;;;;;;;33.03;33.47;99464.03;5095521;28;20079;-52
2021/06/20 06:58:45;;;;;;;3.83;2.25;;;;;;;33.05;33.04;99470.09;5095626;28;20063;-52
2021/06/20 07:01:11;;;;;;;3.80;1.85;;;;;;;33.02;33.30;99459.63;5097429;28;20051;-52
2021/06/20 07:03:37;;;;;;;4.30;1.88;;;;;;;33.06;32.61;99463.66;5097292;28;20048;-52
2021/06/20 07:06:02;;;;;;;2.60;2.35;;;;;;;33.07;32.89;99468.03;5096442;28;20074;-52
2021/06/20 07:08:28;;;;;;;5.97;1.92;;;;;;;33.12;32.13;99462.91;5096508;28;20105;-53
2021/06/20 07:10:54;;;;;;;2.80;2.13;;;;;;;33.12;32.66;99462.03;5096382;28;20052;-53
2021/06/20 07:13:20;;;;;;;4.40;2.47;;;;;;;33.14;32.12;99465.41;5096955;28;20044;-53
2021/06/20 07:15:46;;;;;;;5.68;1.83;;;;;;;33.17;32.54;99457.72;5096295;28;20040;-52
2021/06/20 07:18:12;;;;;;;5.50;1.90;;;;;;;33.32;32.11;99451.41;5097042;28;20062;-52
2021/06/20 07:20:37;;;;;;;4.90;2.78;;;;;;;33.46;31.56;99439.63;5095982;28;20131;-52
2021/06/20 07:23:03;;;;;;;3.70;3.15;;;;;;;33.68;31.67;99445.91;5096697;28;20039;-52
2021/06/20 07:25:29;;;;;;;2.13;1.83;;;;;;;33.81;31.95;99439.75;5096748;28;20105;-52
2021/06/20 07:27:55;;;;;;;34.47;30.95;;;;;;;34.16;31.01;99441.47;5096790;28;20052;-52
2021/06/20 07:30:21;;;;;;;59.72;54.22;;;;;;;34.30;31.43;99439.66;5112861;28;20059;-52
2021/06/20 07:32:47;;;;;;;8.13;7.43;;;;;;;34.49;31.07;99439.97;5096583;28;20082;-52
2021/06/20 07:35:13;;;;;;;3.63;2.15;;;;;;;34.65;30.90;99431.50;5113667;28;20052;-52
2021/06/20 07:37:39;;;;;;;2.67;1.92;;;;;;;34.89;30.73;99420.06;5096524;28;20048;-52
2021/06/20 07:40:07;;;;;;;2.88;1.90;;;;;;;34.92;30.41;99426.97;5096724;28;20044;-52
2021/06/20 07:42:33;;;;;;;4.07;2.58;;;;;;;34.86;30.20;99425.91;5095491;28;20074;-53
2021/06/20 07:44:58;;;;;;;4.10;2.20;;;;;;;34.66;29.79;99425.84;5096707;28;20180;-54
2021/06/20 07:47:24;;;;;;;5.35;2.38;;;;;;;34.36;29.46;99425.28;5096292;28;20101;-54
2021/06/20 07:49:50;;;;;;;5.25;2.30;;;;;;;34.32;30.43;99428.56;5096597;28;20048;-54
2021/06/20 07:52:16;;;;;;;5.15;2.13;;;;;;;34.46;30.68;99426.78;5095715;28;20441;-53
2021/06/20 07:54:49;;;;;;;2.15;1.70;;;;;;;34.46;30.65;99415.91;5096284;28;20040;-54
2021/06/20 07:57:18;;;;;;;4.05;2.25;;;;;;;34.49;31.09;99415.50;5095349;28;20449;-54
2021/06/20 07:59:46;;;;;;;2.90;1.77;;;;;;;34.59;30.40;99414.13;5096148;28;20494;-54
2021/06/20 08:02:12;;;;;;;6.03;1.80;;;;;;;34.67;29.50;99411.19;5096056;28;20428;-54
2021/06/20 08:04:39;;;;;;;2.80;1.60;;;;;;;34.72;30.21;99401.63;5096422;28;20117;-54
2021/06/20 08:07:05;;;;;;;2.88;1.73;;;;;;;34.69;29.88;99400.13;5096151;28;20089;-54
2021/06/20 08:09:31;;;;;;;2.45;1.63;;;;;;;34.64;30.50;99400.72;5096191;28;20040;-54
2021/06/20 08:11:57;;;;;;;2.50;1.67;;;;;;;34.66;30.49;99395.94;5096004;28;20459;-54
2021/06/20 08:14:23;;;;;;;2.20;1.83;;;;;;;34.82;30.75;99392.00;5096351;28;20392;-54
2021/06/20 08:16:49;;;;;;;2.70;1.80;;;;;;;34.75;30.14;99391.16;5096314;28;20048;-54
2021/06/20 08:19:15;;;;;;;2.70;1.90;;;;;;;34.93;30.18;99397.88;5095996;28;20062;-54
2021/06/20 08:21:43;;;;;;;2.85;1.88;;;;;;;34.77;30.18;99374.63;5100352;28;20056;-55
2021/06/20 08:24:09;;;;;;;3.80;1.98;;;;;;;34.88;29.99;99380.31;5100172;28;20139;-53
2021/06/20 08:26:36;;;;;;;2.92;1.85;;;;;;;34.89;30.73;99376.53;5099999;28;20135;-54
2021/06/20 08:29:03;;;;;;;2.15;1.90;;;;;;;35.13;29.69;99371.56;5082551;28;20048;-55
2021/06/20 08:31:28;;;;;;;4.38;1.45;;;;;;;35.12;29.82;99365.28;5099151;28;20081;-56
2021/06/20 08:33:54;;;;;;;1.73;1.48;;;;;;;35.22;29.44;99367.59;5099918;28;20112;-56
2021/06/20 08:36:20;;;;;;;2.55;1.27;;;;;;;35.08;28.51;99369.50;5100526;28;20040;-55
2021/06/20 08:38:47;;;;;;;3.38;1.33;;;;;;;35.20;28.79;99364.28;5099070;28;20040;-55
2021/06/20 08:41:13;;;;;;;2.35;1.30;;;;;;;35.27;29.82;99358.84;5099283;28;20059;-55
2021/06/20 08:43:40;;;;;;;3.20;1.42;;;;;;;35.18;27.87;99362.81;5098850;28;20051;-54
2021/06/20 08:46:06;;;;;;;5.15;1.30;;;;;;;35.08;28.15;99364.03;5099796;28;20047;-54
2021/06/20 08:48:35;;;;;;;2.55;1.48;;;;;;;35.17;28.13;99364.69;5099095;28;20382;-55
2021/06/20 08:51:01;;;;;;;2.25;1.58;;;;;;;35.25;28.62;99359.03;5099681;28;20042;-54
2021/06/20 08:53:27;;;;;;;2.42;1.52;;;;;;;35.24;28.92;99353.81;5099660;28;20044;-55
2021/06/20 08:55:52;;;;;;;2.58;1.30;;;;;;;35.42;29.08;99358.59;5100643;28;20048;-55
2021/06/20 08:58:27;;;;;;;1.50;1.05;;;;;;;35.44;27.99;99359.25;5099506;28;20052;-55
2021/06/20 09:00:54;;;;;;;1.48;0.90;;;;;;;35.53;28.11;99368.91;5099584;28;20394;-55
2021/06/20 09:03:20;;;;;;;2.30;1.23;;;;;;;35.59;27.96;99362.63;5099650;28;20044;-55
2021/06/20 09:06:00;;;;;;;1.88;0.98;;;;;;;35.58;27.88;99358.19;5099664;28;20436;-55
2021/06/20 09:08:28;;;;;;;1.25;1.00;;;;;;;35.67;27.73;99351.50;5099580;28;20051;-55
2021/06/20 09:10:55;;;;;;;3.08;1.13;;;;;;;35.74;28.68;99349.59;5099321;28;20055;-59
2021/06/20 09:13:20;;;;;;;3.03;1.20;;;;;;;35.88;27.65;99360.44;5099064;28;20436;-59
2021/06/20 09:16:00;;;;;;;1.83;1.38;;;;;;;35.88;27.81;99368.63;5099070;28;20097;-55
2021/06/20 09:18:26;;;;;;;2.95;1.40;;;;;;;35.73;27.42;99361.53;5098305;28;20135;-53
2021/06/20 09:20:52;;;;;;;3.83;1.80;;;;;;;35.80;27.79;99369.69;5099101;28;20052;-54
2021/06/20 09:23:17;;;;;;;2.75;1.40;;;;;;;35.74;28.54;99365.91;5099258;28;20047;-56
2021/06/20 09:25:45;;;;;;;1.77;1.08;;;;;;;35.84;28.54;99353.75;5099279;28;20048;-55
2021/06/20 09:28:12;;;;;;;4.25;1.25;;;;;;;35.88;28.81;99360.44;5099291;28;20048;-56
2021/06/20 09:30:51;;;;;;;2.08;1.65;;;;;;;35.70;29.13;99356.50;5098697;28;20058;-56
2021/06/20 09:33:18;;;;;;;3.30;1.60;;;;;;;35.80;29.76;99354.19;5099337;28;20048;-56
2021/06/20 09:35:45;;;;;;;1.38;1.27;;;;;;;36.02;29.64;99353.97;5098892;28;20411;-55
2021/06/20 09:38:21;;;;;;;1.75;1.60;;;;;;;36.12;27.87;99365.25;5098770;28;20040;-56
2021/06/20 09:40:47;;;;;;;1.20;1.10;;;;;;;35.99;28.61;99368.81;5098778;28;20035;-55
2021/06/20 09:43:16;;;;;;;3.95;1.30;;;;;;;35.78;27.71;99367.19;5098595;28;20433;-56
2021/06/20 09:45:44;;;;;;;2.65;1.27;;;;;;;35.83;28.04;99366.53;5098915;28;20062;-56
2021/06/20 09:48:27;;;;;;;3.67;1.40;;;;;;;35.77;27.86;99360.06;5098872;28;20044;-58
2021/06/20 09:50:56;;;;;;;2.08;1.60;;;;;;;35.75;28.39;99356.72;5098690;28;20173;-57
2021/06/20 09:53:36;;;;;;;2.50;1.73;;;;;;;35.72;27.99;99350.88;5098556;28;20326;-56
2021/06/20 09:56:30;;;;;;;4.68;1.48;;;;;;;35.57;28.61;99346.47;5097822;28;20451;-55
2021/06/20 09:59:01;;;;;;;1.33;1.15;;;;;;;35.50;29.39;99337.47;5099525;28;20082;-58
2021/06/20 10:01:28;;;;;;;1.60;1.50;;;;;;;35.51;29.17;99330.94;5097762;28;20428;-59
2021/06/20 10:03:54;;;;;;;6.95;1.70;;;;;;;35.52;29.96;99337.22;5080594;28;20127;-58
2021/06/20 10:06:20;;;;;;;9.48;1.55;;;;;;;35.56;29.85;99339.38;5098580;28;20075;-58
2021/06/20 10:08:46;;;;;;;3.00;1.20;;;;;;;35.66;29.48;99338.94;5098518;28;20476;-57
2021/06/20 10:11:15;;;;;;;2.58;1.40;;;;;;;35.84;29.78;99342.88;5098123;28;20048;-57
2021/06/20 10:13:41;;;;;;;3.78;1.70;;;;;;;35.81;29.01;99352.28;5098366;28;20142;-57
2021/06/20 10:16:22;;;;;;;2.72;1.52;;;;;;;35.57;28.55;99343.75;5099154;28;20048;-57
2021/06/20 10:18:53;;;;;;;2.95;1.40;;;;;;;35.63;29.42;99336.63;5097736;28;20109;-57
2021/06/20 10:21:39;;;;;;;2.88;1.08;;;;;;;35.92;29.01;99348.09;5098225;28;20043;-57
2021/06/20 10:24:16;;;;;;;1.77;1.35;;;;;;;35.95;28.18;99345.78;5098148;28;20044;-57
2021/06/20 10:26:50;;;;;;;3.05;1.70;;;;;;;35.77;27.10;99338.25;5097874;28;20056;-57
2021/06/20 10:29:21;;;;;;;1.52;1.13;;;;;;;35.77;26.94;99330.09;5098153;28;20109;-57
2021/06/20 10:31:48;;;;;;;3.50;1.17;;;;;;;35.80;26.77;99326.94;5097837;28;20040;-57
2021/06/20 10:34:21;;;;;;;2.75;1.00;;;;;;;35.87;27.31;99332.38;5097339;28;20182;-57
2021/06/20 10:36:49;;;;;;;2.20;1.10;;;;;;;35.79;27.18;99330.72;5097787;28;20056;-57
2021/06/20 10:39:15;;;;;;;1.48;1.15;;;;;;;35.86;26.33;99332.59;5097912;28;20048;-57
2021/06/20 10:41:41;;;;;;;1.33;1.10;;;;;;;35.89;28.03;99335.72;5097810;28;20048;-56
2021/06/20 10:44:07;;;;;;;3.15;1.50;;;;;;;36.02;27.40;99330.28;5096051;28;20047;-57
2021/06/20 10:46:33;;;;;;;1.15;0.88;;;;;;;36.01;28.15;99325.00;5097749;28;20048;-57
2021/06/20 10:48:59;;;;;;;3.20;1.27;;;;;;;36.08;27.69;99320.41;5097688;28;20044;-57
2021/06/20 10:51:25;;;;;;;1.40;1.10;;;;;;;36.13;27.85;99312.41;5097441;28;20371;-57
2021/06/20 10:53:51;;;;;;;3.33;1.20;;;;;;;36.17;28.96;99315.53;5097570;28;20052;-57
2021/06/20 10:56:26;;;;;;;4.57;1.10;;;;;;;36.28;27.87;99323.03;5096744;28;20152;-57
2021/06/20 10:58:53;;;;;;;2.42;1.20;;;;;;;36.34;27.34;99327.63;5097572;28;20121;-57
2021/06/20 11:01:21;;;;;;;2.45;1.05;;;;;;;36.33;27.97;99325.94;5097220;28;20118;-57
2021/06/20 11:03:59;;;;;;;1.20;0.98;;;;;;;36.41;26.89;99319.41;5098143;28;20429;-57
2021/06/20 11:06:26;;;;;;;3.40;1.13;;;;;;;36.42;26.72;99321.06;5097084;28;20493;-57
2021/06/20 11:09:07;;;;;;;2.42;1.15;;;;;;;36.52;25.48;99321.47;5096160;28;20432;-57
2021/06/20 11:11:53;;;;;;;2.45;0.73;;;;;;;36.52;25.07;99317.91;5097260;28;20123;-58
2021/06/20 11:14:19;;;;;;;2.30;0.80;;;;;;;36.48;24.57;99326.50;5096927;28;20040;-57
2021/06/20 11:16:46;;;;;;;1.65;0.77;;;;;;;36.48;24.26;99322.94;5096975;28;20040;-57
2021/06/20 11:19:12;;;;;;;1.33;0.50;;;;;;;36.52;24.24;99321.47;5095964;28;20036;-58
2021/06/20 11:21:43;;;;;;;2.17;0.80;;;;;;;36.55;25.17;99307.41;5096467;28;20063;-58
2021/06/20 11:24:13;;;;;;;2.50;0.70;;;;;;;36.57;24.12;99307.19;5079289;28;20112;-58
2021/06/20 11:26:38;;;;;;;2.85;1.10;;;;;;;36.58;24.63;99306.97;5096730;28;20090;-58
2021/06/20 11:29:06;;;;;;;4.38;0.90;;;;;;;36.68;25.03;99303.75;5096923;28;20048;-58
2021/06/20 11:31:32;;;;;;;2.53;1.30;;;;;;;36.70;24.86;99304.38;5096914;28;20059;-58